sensor_id;sensor_type;location;lat;lon;timestamp;P1;durP1;ratioP1;P2;durP2;ratioP2
79644;SDS011;69117;47.148;18.954;2023-12-22T00:02:53;8.23;;;4.32;;
79644;SDS011;69117;47.148;18.954;2023-12-22T00:05:55;6.93;;;4.15;;
79644;SDS011;69117;47.148;18.954;2023-12-22T00:08:57;2.38;;;2.20;;
79644;SDS011;69117;47.148;18.954;2023-12-22T00:11:58;7.13;;;4.03;;
79644;SDS011;69117;47.148;18.954;2023-12-22T00:30:18;7.03;;;4.05;;
79644;SDS011;69117;47.148;18.954;2023-12-22T00:33:19;5.05;;;3.40;;
79644;SDS011;69117;47.148;18.954;2023-12-22T00:36:21;6.03;;;3.60;;
79644;SDS011;69117;47.148;18.954;2023-12-22T00:39:25;7.28;;;3.28;;
79644;SDS011;69117;47.148;18.954;2023-12-22T00:42:27;7.63;;;2.88;;
79644;SDS011;69117;47.148;18.954;2023-12-22T00:45:29;6.95;;;2.92;;
79644;SDS011;69117;47.148;18.954;2023-12-22T00:48:31;5.63;;;3.30;;
79644;SDS011;69117;47.148;18.954;2023-12-22T00:51:32;5.07;;;2.50;;
79644;SDS011;69117;47.148;18.954;2023-12-22T00:57:36;3.13;;;1.45;;
79644;SDS011;69117;47.148;18.954;2023-12-22T01:03:39;2.03;;;1.17;;
79644;SDS011;69117;47.148;18.954;2023-12-22T01:06:41;1.98;;;1.58;;
79644;SDS011;69117;47.148;18.954;2023-12-22T01:09:42;3.90;;;1.60;;
79644;SDS011;69117;47.148;18.954;2023-12-22T01:12:44;3.08;;;1.27;;
79644;SDS011;69117;47.148;18.954;2023-12-22T01:15:46;3.10;;;1.23;;
79644;SDS011;69117;47.148;18.954;2023-12-22T01:21:50;1.83;;;0.70;;
79644;SDS011;69117;47.148;18.954;2023-12-22T01:24:53;0.63;;;0.20;;
79644;SDS011;69117;47.148;18.954;2023-12-22T01:30:56;0.70;;;0.10;;
79644;SDS011;69117;47.148;18.954;2023-12-22T01:37:00;0.15;;;0.00;;
79644;SDS011;69117;47.148;18.954;2023-12-22T01:40:01;2.30;;;0.55;;
79644;SDS011;69117;47.148;18.954;2023-12-22T01:43:04;1.95;;;0.10;;
79644;SDS011;69117;47.148;18.954;2023-12-22T01:46:05;0.08;;;0.00;;
79644;SDS011;69117;47.148;18.954;2023-12-22T01:49:09;1.25;;;0.55;;
79644;SDS011;69117;47.148;18.954;2023-12-22T01:52:11;0.47;;;0.20;;
79644;SDS011;69117;47.148;18.954;2023-12-22T01:55:13;0.60;;;0.25;;
79644;SDS011;69117;47.148;18.954;2023-12-22T01:58:19;0.57;;;0.20;;
79644;SDS011;69117;47.148;18.954;2023-12-22T02:01:21;0.30;;;0.22;;
79644;SDS011;69117;47.148;18.954;2023-12-22T02:04:24;0.85;;;0.45;;
79644;SDS011;69117;47.148;18.954;2023-12-22T02:07:28;0.15;;;0.08;;
79644;SDS011;69117;47.148;18.954;2023-12-22T02:10:29;0.22;;;0.22;;
79644;SDS011;69117;47.148;18.954;2023-12-22T02:13:31;0.60;;;0.35;;
79644;SDS011;69117;47.148;18.954;2023-12-22T02:16:40;0.70;;;0.45;;
79644;SDS011;69117;47.148;18.954;2023-12-22T02:19:49;0.22;;;0.10;;
79644;SDS011;69117;47.148;18.954;2023-12-22T02:22:52;0.70;;;0.28;;
79644;SDS011;69117;47.148;18.954;2023-12-22T02:26:06;0.03;;;0.00;;
79644;SDS011;69117;47.148;18.954;2023-12-22T02:29:18;1.27;;;1.00;;
79644;SDS011;69117;47.148;18.954;2023-12-22T02:32:25;1.20;;;0.75;;
79644;SDS011;69117;47.148;18.954;2023-12-22T02:35:32;1.55;;;0.65;;
79644;SDS011;69117;47.148;18.954;2023-12-22T02:38:36;0.13;;;0.03;;
79644;SDS011;69117;47.148;18.954;2023-12-22T02:41:40;0.80;;;0.35;;
79644;SDS011;69117;47.148;18.954;2023-12-22T02:44:42;0.30;;;0.30;;
79644;SDS011;69117;47.148;18.954;2023-12-22T02:47:44;1.05;;;0.30;;
79644;SDS011;69117;47.148;18.954;2023-12-22T02:50:47;1.77;;;0.20;;
79644;SDS011;69117;47.148;18.954;2023-12-22T02:53:48;0.00;;;0.00;;
79644;SDS011;69117;47.148;18.954;2023-12-22T02:56:50;0.28;;;0.28;;
79644;SDS011;69117;47.148;18.954;2023-12-22T03:02:53;0.95;;;0.20;;
79644;SDS011;69117;47.148;18.954;2023-12-22T03:08:56;0.25;;;0.00;;
79644;SDS011;69117;47.148;18.954;2023-12-22T03:11:58;0.00;;;0.00;;
79644;SDS011;69117;47.148;18.954;2023-12-22T03:15:03;0.20;;;0.00;;
79644;SDS011;69117;47.148;18.954;2023-12-22T03:18:06;0.25;;;0.25;;
79644;SDS011;69117;47.148;18.954;2023-12-22T03:21:08;0.00;;;0.00;;
79644;SDS011;69117;47.148;18.954;2023-12-22T03:24:17;0.10;;;0.00;;
79644;SDS011;69117;47.148;18.954;2023-12-22T03:27:25;0.30;;;0.30;;
79644;SDS011;69117;47.148;18.954;2023-12-22T03:33:28;0.00;;;0.00;;
79644;SDS011;69117;47.148;18.954;2023-12-22T03:39:31;0.00;;;0.00;;
79644;SDS011;69117;47.148;18.954;2023-12-22T03:45:35;0.10;;;0.00;;
79644;SDS011;69117;47.148;18.954;2023-12-22T03:51:38;0.00;;;0.00;;
79644;SDS011;69117;47.148;18.954;2023-12-22T03:54:43;0.22;;;0.10;;
79644;SDS011;69117;47.148;18.954;2023-12-22T03:57:44;0.00;;;0.00;;
79644;SDS011;69117;47.148;18.954;2023-12-22T04:00:46;0.10;;;0.00;;
79644;SDS011;69117;47.148;18.954;2023-12-22T04:03:48;0.10;;;0.10;;
79644;SDS011;69117;47.148;18.954;2023-12-22T04:06:50;0.00;;;0.00;;
79644;SDS011;69117;47.148;18.954;2023-12-22T04:09:52;0.20;;;0.10;;
79644;SDS011;69117;47.148;18.954;2023-12-22T04:15:55;1.30;;;0.15;;
79644;SDS011;69117;47.148;18.954;2023-12-22T04:21:58;0.15;;;0.00;;
79644;SDS011;69117;47.148;18.954;2023-12-22T04:25:00;0.20;;;0.00;;
79644;SDS011;69117;47.148;18.954;2023-12-22T04:31:03;0.00;;;0.00;;
79644;SDS011;69117;47.148;18.954;2023-12-22T04:34:07;0.00;;;0.00;;
79644;SDS011;69117;47.148;18.954;2023-12-22T04:37:09;0.00;;;0.00;;
79644;SDS011;69117;47.148;18.954;2023-12-22T04:40:11;0.00;;;0.00;;
79644;SDS011;69117;47.148;18.954;2023-12-22T04:43:13;0.00;;;0.00;;
79644;SDS011;69117;47.148;18.954;2023-12-22T04:49:16;0.00;;;0.00;;
79644;SDS011;69117;47.148;18.954;2023-12-22T04:52:18;0.40;;;0.20;;
79644;SDS011;69117;47.148;18.954;2023-12-22T04:55:19;0.30;;;0.30;;
79644;SDS011;69117;47.148;18.954;2023-12-22T04:58:21;0.00;;;0.00;;
79644;SDS011;69117;47.148;18.954;2023-12-22T05:01:23;0.00;;;0.00;;
79644;SDS011;69117;47.148;18.954;2023-12-22T05:04:25;0.85;;;0.50;;
79644;SDS011;69117;47.148;18.954;2023-12-22T05:07:26;0.00;;;0.00;;
79644;SDS011;69117;47.148;18.954;2023-12-22T05:10:29;0.52;;;0.22;;
79644;SDS011;69117;47.148;18.954;2023-12-22T05:13:31;0.00;;;0.00;;
79644;SDS011;69117;47.148;18.954;2023-12-22T05:16:33;0.05;;;0.00;;
79644;SDS011;69117;47.148;18.954;2023-12-22T05:19:35;0.47;;;0.10;;
79644;SDS011;69117;47.148;18.954;2023-12-22T05:22:37;0.00;;;0.00;;
79644;SDS011;69117;47.148;18.954;2023-12-22T05:25:38;0.10;;;0.00;;
79644;SDS011;69117;47.148;18.954;2023-12-22T05:28:42;0.30;;;0.00;;
79644;SDS011;69117;47.148;18.954;2023-12-22T05:31:43;0.98;;;0.10;;
79644;SDS011;69117;47.148;18.954;2023-12-22T05:34:45;0.08;;;0.00;;
79644;SDS011;69117;47.148;18.954;2023-12-22T05:37:47;0.55;;;0.47;;
79644;SDS011;69117;47.148;18.954;2023-12-22T05:40:52;0.20;;;0.17;;
79644;SDS011;69117;47.148;18.954;2023-12-22T05:46:56;0.98;;;0.85;;
79644;SDS011;69117;47.148;18.954;2023-12-22T05:49:58;0.08;;;0.00;;
79644;SDS011;69117;47.148;18.954;2023-12-22T05:53:01;0.25;;;0.10;;
79644;SDS011;69117;47.148;18.954;2023-12-22T05:56:03;1.67;;;0.05;;
79644;SDS011;69117;47.148;18.954;2023-12-22T05:59:05;0.20;;;0.20;;
79644;SDS011;69117;47.148;18.954;2023-12-22T06:02:07;0.20;;;0.20;;
79644;SDS011;69117;47.148;18.954;2023-12-22T06:08:10;0.10;;;0.00;;
79644;SDS011;69117;47.148;18.954;2023-12-22T06:11:12;0.60;;;0.60;;
79644;SDS011;69117;47.148;18.954;2023-12-22T06:14:14;1.88;;;0.45;;
79644;SDS011;69117;47.148;18.954;2023-12-22T06:17:16;0.10;;;0.05;;
79644;SDS011;69117;47.148;18.954;2023-12-22T06:23:19;3.50;;;0.40;;
79644;SDS011;69117;47.148;18.954;2023-12-22T06:26:21;0.82;;;0.45;;
79644;SDS011;69117;47.148;18.954;2023-12-22T06:29:23;0.00;;;0.00;;
79644;SDS011;69117;47.148;18.954;2023-12-22T06:32:24;0.70;;;0.00;;
79644;SDS011;69117;47.148;18.954;2023-12-22T06:35:26;0.25;;;0.10;;
79644;SDS011;69117;47.148;18.954;2023-12-22T06:38:28;0.10;;;0.00;;
79644;SDS011;69117;47.148;18.954;2023-12-22T06:41:32;0.03;;;0.00;;
79644;SDS011;69117;47.148;18.954;2023-12-22T06:44:34;1.45;;;0.32;;
79644;SDS011;69117;47.148;18.954;2023-12-22T06:50:38;1.45;;;0.13;;
79644;SDS011;69117;47.148;18.954;2023-12-22T06:53:41;0.30;;;0.10;;
79644;SDS011;69117;47.148;18.954;2023-12-22T06:59:44;0.32;;;0.32;;
79644;SDS011;69117;47.148;18.954;2023-12-22T07:02:47;0.28;;;0.10;;
79644;SDS011;69117;47.148;18.954;2023-12-22T07:05:49;0.10;;;0.00;;
79644;SDS011;69117;47.148;18.954;2023-12-22T07:12:11;0.75;;;0.75;;
79644;SDS011;69117;47.148;18.954;2023-12-22T07:15:13;0.45;;;0.30;;
79644;SDS011;69117;47.148;18.954;2023-12-22T07:18:15;2.90;;;1.40;;
79644;SDS011;69117;47.148;18.954;2023-12-22T07:21:17;2.92;;;0.68;;
79644;SDS011;69117;47.148;18.954;2023-12-22T07:24:21;3.13;;;0.65;;
79644;SDS011;69117;47.148;18.954;2023-12-22T07:27:23;0.20;;;0.20;;
79644;SDS011;69117;47.148;18.954;2023-12-22T07:33:26;0.10;;;0.10;;
79644;SDS011;69117;47.148;18.954;2023-12-22T07:36:30;0.00;;;0.00;;
79644;SDS011;69117;47.148;18.954;2023-12-22T07:39:32;0.95;;;0.32;;
79644;SDS011;69117;47.148;18.954;2023-12-22T07:42:34;0.20;;;0.20;;
79644;SDS011;69117;47.148;18.954;2023-12-22T07:48:37;0.13;;;0.08;;
79644;SDS011;69117;47.148;18.954;2023-12-22T07:51:39;0.00;;;0.00;;
79644;SDS011;69117;47.148;18.954;2023-12-22T07:54:42;0.90;;;0.30;;
79644;SDS011;69117;47.148;18.954;2023-12-22T07:57:43;0.47;;;0.15;;
79644;SDS011;69117;47.148;18.954;2023-12-22T08:00:47;5.13;;;0.63;;
79644;SDS011;69117;47.148;18.954;2023-12-22T08:03:48;1.58;;;0.32;;
79644;SDS011;69117;47.148;18.954;2023-12-22T08:06:50;1.95;;;0.60;;
79644;SDS011;69117;47.148;18.954;2023-12-22T08:09:53;0.80;;;0.25;;
79644;SDS011;69117;47.148;18.954;2023-12-22T08:12:55;0.00;;;0.00;;
79644;SDS011;69117;47.148;18.954;2023-12-22T08:15:57;0.30;;;0.10;;
79644;SDS011;69117;47.148;18.954;2023-12-22T08:18:58;5.97;;;1.67;;
79644;SDS011;69117;47.148;18.954;2023-12-22T08:22:00;0.55;;;0.55;;
79644;SDS011;69117;47.148;18.954;2023-12-22T08:25:06;0.57;;;0.32;;
79644;SDS011;69117;47.148;18.954;2023-12-22T08:28:09;2.63;;;0.43;;
79644;SDS011;69117;47.148;18.954;2023-12-22T08:31:13;0.03;;;0.03;;
79644;SDS011;69117;47.148;18.954;2023-12-22T08:34:15;0.15;;;0.10;;
79644;SDS011;69117;47.148;18.954;2023-12-22T08:37:17;1.40;;;0.38;;
79644;SDS011;69117;47.148;18.954;2023-12-22T08:40:18;0.10;;;0.10;;
79644;SDS011;69117;47.148;18.954;2023-12-22T08:43:27;1.00;;;0.32;;
79644;SDS011;69117;47.148;18.954;2023-12-22T08:46:29;0.60;;;0.60;;
79644;SDS011;69117;47.148;18.954;2023-12-22T08:49:32;0.25;;;0.25;;
79644;SDS011;69117;47.148;18.954;2023-12-22T08:52:34;2.08;;;0.13;;
79644;SDS011;69117;47.148;18.954;2023-12-22T08:55:36;0.88;;;0.22;;
79644;SDS011;69117;47.148;18.954;2023-12-22T08:58:38;1.88;;;0.28;;
79644;SDS011;69117;47.148;18.954;2023-12-22T09:01:39;0.10;;;0.10;;
79644;SDS011;69117;47.148;18.954;2023-12-22T09:04:42;2.25;;;0.20;;
79644;SDS011;69117;47.148;18.954;2023-12-22T09:07:44;0.47;;;0.15;;
79644;SDS011;69117;47.148;18.954;2023-12-22T09:10:47;3.00;;;0.43;;
79644;SDS011;69117;47.148;18.954;2023-12-22T09:13:51;0.17;;;0.15;;
79644;SDS011;69117;47.148;18.954;2023-12-22T09:16:52;0.70;;;0.10;;
79644;SDS011;69117;47.148;18.954;2023-12-22T09:19:57;0.15;;;0.15;;
79644;SDS011;69117;47.148;18.954;2023-12-22T09:22:59;2.40;;;0.65;;
79644;SDS011;69117;47.148;18.954;2023-12-22T09:26:01;0.20;;;0.20;;
79644;SDS011;69117;47.148;18.954;2023-12-22T09:29:03;2.15;;;0.40;;
79644;SDS011;69117;47.148;18.954;2023-12-22T09:32:04;0.40;;;0.10;;
79644;SDS011;69117;47.148;18.954;2023-12-22T09:35:06;2.28;;;0.35;;
79644;SDS011;69117;47.148;18.954;2023-12-22T09:38:10;0.65;;;0.00;;
79644;SDS011;69117;47.148;18.954;2023-12-22T09:41:11;0.55;;;0.35;;
79644;SDS011;69117;47.148;18.954;2023-12-22T09:44:14;0.77;;;0.32;;
79644;SDS011;69117;47.148;18.954;2023-12-22T09:47:20;0.50;;;0.40;;
79644;SDS011;69117;47.148;18.954;2023-12-22T09:50:23;1.30;;;0.10;;
79644;SDS011;69117;47.148;18.954;2023-12-22T09:53:26;0.22;;;0.22;;
79644;SDS011;69117;47.148;18.954;2023-12-22T09:56:29;1.58;;;0.75;;
79644;SDS011;69117;47.148;18.954;2023-12-22T09:59:32;0.05;;;0.00;;
79644;SDS011;69117;47.148;18.954;2023-12-22T10:02:38;0.10;;;0.00;;
79644;SDS011;69117;47.148;18.954;2023-12-22T10:05:41;1.00;;;0.30;;
79644;SDS011;69117;47.148;18.954;2023-12-22T10:08:43;0.77;;;0.20;;
79644;SDS011;69117;47.148;18.954;2023-12-22T10:11:45;0.13;;;0.00;;
79644;SDS011;69117;47.148;18.954;2023-12-22T10:14:55;0.08;;;0.00;;
79644;SDS011;69117;47.148;18.954;2023-12-22T10:17:58;0.00;;;0.00;;
79644;SDS011;69117;47.148;18.954;2023-12-22T10:20:59;0.45;;;0.10;;
79644;SDS011;69117;47.148;18.954;2023-12-22T10:24:02;0.25;;;0.10;;
79644;SDS011;69117;47.148;18.954;2023-12-22T10:27:04;0.75;;;0.00;;
79644;SDS011;69117;47.148;18.954;2023-12-22T10:30:07;0.10;;;0.00;;
79644;SDS011;69117;47.148;18.954;2023-12-22T10:33:09;0.03;;;0.00;;
79644;SDS011;69117;47.148;18.954;2023-12-22T10:36:10;0.15;;;0.10;;
79644;SDS011;69117;47.148;18.954;2023-12-22T10:39:12;0.00;;;0.00;;
79644;SDS011;69117;47.148;18.954;2023-12-22T10:42:14;0.28;;;0.20;;
79644;SDS011;69117;47.148;18.954;2023-12-22T10:45:17;1.20;;;0.30;;
79644;SDS011;69117;47.148;18.954;2023-12-22T10:48:20;0.25;;;0.10;;
79644;SDS011;69117;47.148;18.954;2023-12-22T10:51:23;0.28;;;0.28;;
79644;SDS011;69117;47.148;18.954;2023-12-22T10:54:25;0.20;;;0.20;;
79644;SDS011;69117;47.148;18.954;2023-12-22T10:57:27;2.08;;;0.30;;
79644;SDS011;69117;47.148;18.954;2023-12-22T11:00:36;0.32;;;0.10;;
79644;SDS011;69117;47.148;18.954;2023-12-22T11:03:39;0.00;;;0.00;;
79644;SDS011;69117;47.148;18.954;2023-12-22T11:06:42;0.63;;;0.30;;
79644;SDS011;69117;47.148;18.954;2023-12-22T11:09:48;0.00;;;0.00;;
79644;SDS011;69117;47.148;18.954;2023-12-22T11:12:52;1.55;;;0.28;;
79644;SDS011;69117;47.148;18.954;2023-12-22T11:15:57;0.00;;;0.00;;
79644;SDS011;69117;47.148;18.954;2023-12-22T11:19:00;0.00;;;0.00;;
79644;SDS011;69117;47.148;18.954;2023-12-22T11:22:03;0.15;;;0.00;;
79644;SDS011;69117;47.148;18.954;2023-12-22T11:25:07;0.22;;;0.10;;
79644;SDS011;69117;47.148;18.954;2023-12-22T11:28:12;0.00;;;0.00;;
79644;SDS011;69117;47.148;18.954;2023-12-22T11:31:15;0.20;;;0.15;;
79644;SDS011;69117;47.148;18.954;2023-12-22T11:34:17;0.08;;;0.00;;
79644;SDS011;69117;47.148;18.954;2023-12-22T11:37:20;0.65;;;0.20;;
79644;SDS011;69117;47.148;18.954;2023-12-22T11:40:22;0.00;;;0.00;;
79644;SDS011;69117;47.148;18.954;2023-12-22T11:43:23;0.30;;;0.10;;
79644;SDS011;69117;47.148;18.954;2023-12-22T11:46:26;3.63;;;0.10;;
79644;SDS011;69117;47.148;18.954;2023-12-22T11:49:31;0.77;;;0.03;;
79644;SDS011;69117;47.148;18.954;2023-12-22T11:52:35;0.40;;;0.40;;
79644;SDS011;69117;47.148;18.954;2023-12-22T11:55:56;0.10;;;0.00;;
79644;SDS011;69117;47.148;18.954;2023-12-22T11:59:05;0.10;;;0.00;;
79644;SDS011;69117;47.148;18.954;2023-12-22T12:02:08;0.00;;;0.00;;
79644;SDS011;69117;47.148;18.954;2023-12-22T12:05:11;0.17;;;0.00;;
79644;SDS011;69117;47.148;18.954;2023-12-22T12:08:14;0.55;;;0.10;;
79644;SDS011;69117;47.148;18.954;2023-12-22T12:11:16;0.10;;;0.00;;
79644;SDS011;69117;47.148;18.954;2023-12-22T12:14:29;0.93;;;0.20;;
79644;SDS011;69117;47.148;18.954;2023-12-22T12:17:37;0.08;;;0.00;;
79644;SDS011;69117;47.148;18.954;2023-12-22T12:20:40;0.22;;;0.00;;
79644;SDS011;69117;47.148;18.954;2023-12-22T12:23:42;0.90;;;0.00;;
79644;SDS011;69117;47.148;18.954;2023-12-22T12:26:45;0.00;;;0.00;;
79644;SDS011;69117;47.148;18.954;2023-12-22T12:29:50;0.47;;;0.10;;
79644;SDS011;69117;47.148;18.954;2023-12-22T12:32:52;0.13;;;0.13;;
79644;SDS011;69117;47.148;18.954;2023-12-22T12:35:56;0.40;;;0.08;;
79644;SDS011;69117;47.148;18.954;2023-12-22T12:42:08;0.85;;;0.20;;
79644;SDS011;69117;47.148;18.954;2023-12-22T12:45:20;1.52;;;0.25;;
79644;SDS011;69117;47.148;18.954;2023-12-22T12:48:24;0.47;;;0.13;;
79644;SDS011;69117;47.148;18.954;2023-12-22T12:51:26;0.50;;;0.50;;
79644;SDS011;69117;47.148;18.954;2023-12-22T12:54:28;0.90;;;0.20;;
79644;SDS011;69117;47.148;18.954;2023-12-22T12:57:30;1.48;;;0.30;;
79644;SDS011;69117;47.148;18.954;2023-12-22T13:00:32;0.30;;;0.00;;
79644;SDS011;69117;47.148;18.954;2023-12-22T13:03:53;0.40;;;0.15;;
79644;SDS011;69117;47.148;18.954;2023-12-22T13:06:56;0.47;;;0.28;;
79644;SDS011;69117;47.148;18.954;2023-12-22T13:10:00;0.20;;;0.10;;
79644;SDS011;69117;47.148;18.954;2023-12-22T13:13:05;1.15;;;0.40;;
79644;SDS011;69117;47.148;18.954;2023-12-22T13:16:07;1.48;;;0.20;;
79644;SDS011;69117;47.148;18.954;2023-12-22T13:19:10;0.10;;;0.00;;
79644;SDS011;69117;47.148;18.954;2023-12-22T13:22:11;0.63;;;0.40;;
79644;SDS011;69117;47.148;18.954;2023-12-22T13:25:13;0.40;;;0.00;;
79644;SDS011;69117;47.148;18.954;2023-12-22T13:28:15;0.88;;;0.10;;
79644;SDS011;69117;47.148;18.954;2023-12-22T13:31:26;0.10;;;0.10;;
79644;SDS011;69117;47.148;18.954;2023-12-22T13:34:28;0.50;;;0.10;;
79644;SDS011;69117;47.148;18.954;2023-12-22T13:37:30;0.15;;;0.05;;
79644;SDS011;69117;47.148;18.954;2023-12-22T13:40:32;0.60;;;0.20;;
79644;SDS011;69117;47.148;18.954;2023-12-22T13:43:34;0.93;;;0.50;;
79644;SDS011;69117;47.148;18.954;2023-12-22T13:46:36;0.28;;;0.00;;
79644;SDS011;69117;47.148;18.954;2023-12-22T13:49:42;0.00;;;0.00;;
79644;SDS011;69117;47.148;18.954;2023-12-22T13:52:44;0.32;;;0.10;;
79644;SDS011;69117;47.148;18.954;2023-12-22T13:55:53;0.22;;;0.13;;
79644;SDS011;69117;47.148;18.954;2023-12-22T13:58:55;0.40;;;0.10;;
79644;SDS011;69117;47.148;18.954;2023-12-22T14:01:57;1.40;;;0.40;;
79644;SDS011;69117;47.148;18.954;2023-12-22T14:04:59;0.10;;;0.10;;
79644;SDS011;69117;47.148;18.954;2023-12-22T14:08:01;0.98;;;0.20;;
79644;SDS011;69117;47.148;18.954;2023-12-22T14:11:05;0.80;;;0.20;;
79644;SDS011;69117;47.148;18.954;2023-12-22T14:14:07;1.00;;;0.30;;
79644;SDS011;69117;47.148;18.954;2023-12-22T14:17:09;1.25;;;0.28;;
79644;SDS011;69117;47.148;18.954;2023-12-22T14:20:11;0.35;;;0.35;;
79644;SDS011;69117;47.148;18.954;2023-12-22T14:23:13;0.75;;;0.30;;
79644;SDS011;69117;47.148;18.954;2023-12-22T14:26:18;0.13;;;0.10;;
79644;SDS011;69117;47.148;18.954;2023-12-22T14:29:19;1.67;;;0.32;;
79644;SDS011;69117;47.148;18.954;2023-12-22T14:32:23;0.20;;;0.10;;
79644;SDS011;69117;47.148;18.954;2023-12-22T14:35:25;0.32;;;0.00;;
79644;SDS011;69117;47.148;18.954;2023-12-22T14:38:27;0.00;;;0.00;;
79644;SDS011;69117;47.148;18.954;2023-12-22T14:41:29;0.00;;;0.00;;
79644;SDS011;69117;47.148;18.954;2023-12-22T14:44:30;0.30;;;0.00;;
79644;SDS011;69117;47.148;18.954;2023-12-22T14:47:32;0.50;;;0.00;;
79644;SDS011;69117;47.148;18.954;2023-12-22T14:50:36;0.10;;;0.00;;
79644;SDS011;69117;47.148;18.954;2023-12-22T14:56:39;0.00;;;0.00;;
79644;SDS011;69117;47.148;18.954;2023-12-22T14:59:43;1.42;;;0.30;;
79644;SDS011;69117;47.148;18.954;2023-12-22T15:02:46;1.52;;;0.68;;
79644;SDS011;69117;47.148;18.954;2023-12-22T15:05:48;1.63;;;0.90;;
79644;SDS011;69117;47.148;18.954;2023-12-22T15:08:50;0.15;;;0.10;;
79644;SDS011;69117;47.148;18.954;2023-12-22T15:11:52;1.17;;;0.10;;
79644;SDS011;69117;47.148;18.954;2023-12-22T15:14:53;1.75;;;0.45;;
79644;SDS011;69117;47.148;18.954;2023-12-22T15:17:55;1.02;;;0.20;;
79644;SDS011;69117;47.148;18.954;2023-12-22T15:20:57;0.20;;;0.10;;
79644;SDS011;69117;47.148;18.954;2023-12-22T15:23:58;0.20;;;0.00;;
79644;SDS011;69117;47.148;18.954;2023-12-22T15:30:02;0.00;;;0.00;;
79644;SDS011;69117;47.148;18.954;2023-12-22T15:33:04;1.05;;;0.10;;
79644;SDS011;69117;47.148;18.954;2023-12-22T15:36:07;1.00;;;0.45;;
79644;SDS011;69117;47.148;18.954;2023-12-22T15:39:08;3.03;;;0.50;;
79644;SDS011;69117;47.148;18.954;2023-12-22T15:45:11;0.68;;;0.25;;
79644;SDS011;69117;47.148;18.954;2023-12-22T15:48:14;2.65;;;1.45;;
79644;SDS011;69117;47.148;18.954;2023-12-22T15:51:15;1.13;;;0.30;;
79644;SDS011;69117;47.148;18.954;2023-12-22T15:54:21;0.68;;;0.45;;
79644;SDS011;69117;47.148;18.954;2023-12-22T15:57:23;1.58;;;0.43;;
79644;SDS011;69117;47.148;18.954;2023-12-22T16:00:24;1.08;;;1.08;;
79644;SDS011;69117;47.148;18.954;2023-12-22T16:03:28;0.57;;;0.22;;
79644;SDS011;69117;47.148;18.954;2023-12-22T16:06:30;0.52;;;0.40;;
79644;SDS011;69117;47.148;18.954;2023-12-22T16:09:33;1.00;;;0.30;;
79644;SDS011;69117;47.148;18.954;2023-12-22T16:12:36;0.20;;;0.10;;
79644;SDS011;69117;47.148;18.954;2023-12-22T16:15:38;1.13;;;0.10;;
79644;SDS011;69117;47.148;18.954;2023-12-22T16:18:41;0.38;;;0.20;;
79644;SDS011;69117;47.148;18.954;2023-12-22T16:21:43;1.65;;;0.50;;
79644;SDS011;69117;47.148;18.954;2023-12-22T16:24:46;0.52;;;0.25;;
79644;SDS011;69117;47.148;18.954;2023-12-22T16:27:47;0.57;;;0.25;;
79644;SDS011;69117;47.148;18.954;2023-12-22T16:30:49;0.30;;;0.10;;
79644;SDS011;69117;47.148;18.954;2023-12-22T16:36:52;1.27;;;0.20;;
79644;SDS011;69117;47.148;18.954;2023-12-22T16:42:56;0.50;;;0.10;;
79644;SDS011;69117;47.148;18.954;2023-12-22T16:48:59;2.85;;;0.77;;
79644;SDS011;69117;47.148;18.954;2023-12-22T16:52:00;1.52;;;0.57;;
79644;SDS011;69117;47.148;18.954;2023-12-22T16:55:02;1.27;;;0.25;;
79644;SDS011;69117;47.148;18.954;2023-12-22T16:58:04;1.20;;;0.75;;
79644;SDS011;69117;47.148;18.954;2023-12-22T17:01:06;0.95;;;0.10;;
79644;SDS011;69117;47.148;18.954;2023-12-22T17:04:27;1.23;;;0.20;;
79644;SDS011;69117;47.148;18.954;2023-12-22T17:07:29;3.80;;;0.77;;
79644;SDS011;69117;47.148;18.954;2023-12-22T17:10:37;0.98;;;0.60;;
79644;SDS011;69117;47.148;18.954;2023-12-22T17:13:38;2.38;;;0.45;;
79644;SDS011;69117;47.148;18.954;2023-12-22T17:16:40;5.63;;;1.30;;
79644;SDS011;69117;47.148;18.954;2023-12-22T17:19:42;3.35;;;0.60;;
79644;SDS011;69117;47.148;18.954;2023-12-22T17:22:44;0.68;;;0.22;;
79644;SDS011;69117;47.148;18.954;2023-12-22T17:25:45;1.70;;;1.10;;
79644;SDS011;69117;47.148;18.954;2023-12-22T17:28:56;0.52;;;0.40;;
79644;SDS011;69117;47.148;18.954;2023-12-22T17:32:00;0.47;;;0.10;;
79644;SDS011;69117;47.148;18.954;2023-12-22T17:35:09;0.65;;;0.32;;
79644;SDS011;69117;47.148;18.954;2023-12-22T17:38:11;1.48;;;0.20;;
79644;SDS011;69117;47.148;18.954;2023-12-22T17:41:13;1.27;;;0.38;;
79644;SDS011;69117;47.148;18.954;2023-12-22T17:44:15;3.53;;;0.30;;
79644;SDS011;69117;47.148;18.954;2023-12-22T17:47:16;0.20;;;0.00;;
79644;SDS011;69117;47.148;18.954;2023-12-22T17:53:20;0.00;;;0.00;;
79644;SDS011;69117;47.148;18.954;2023-12-22T17:56:26;2.90;;;0.43;;
79644;SDS011;69117;47.148;18.954;2023-12-22T17:59:28;1.55;;;0.10;;
79644;SDS011;69117;47.148;18.954;2023-12-22T18:02:29;0.68;;;0.25;;
79644;SDS011;69117;47.148;18.954;2023-12-22T18:08:33;0.32;;;0.20;;
79644;SDS011;69117;47.148;18.954;2023-12-22T18:14:40;1.17;;;0.57;;
79644;SDS011;69117;47.148;18.954;2023-12-22T18:20:43;0.10;;;0.00;;
79644;SDS011;69117;47.148;18.954;2023-12-22T18:23:44;0.88;;;0.40;;
79644;SDS011;69117;47.148;18.954;2023-12-22T18:26:47;0.65;;;0.60;;
79644;SDS011;69117;47.148;18.954;2023-12-22T18:32:50;0.70;;;0.17;;
79644;SDS011;69117;47.148;18.954;2023-12-22T18:38:53;0.40;;;0.38;;
79644;SDS011;69117;47.148;18.954;2023-12-22T18:41:56;2.05;;;0.20;;
79644;SDS011;69117;47.148;18.954;2023-12-22T18:44:58;1.40;;;0.73;;
79644;SDS011;69117;47.148;18.954;2023-12-22T18:51:03;0.10;;;0.03;;
79644;SDS011;69117;47.148;18.954;2023-12-22T18:54:05;0.55;;;0.55;;
79644;SDS011;69117;47.148;18.954;2023-12-22T19:00:08;0.25;;;0.00;;
79644;SDS011;69117;47.148;18.954;2023-12-22T19:03:11;0.35;;;0.10;;
79644;SDS011;69117;47.148;18.954;2023-12-22T19:06:13;0.17;;;0.17;;
79644;SDS011;69117;47.148;18.954;2023-12-22T19:09:15;1.27;;;0.50;;
79644;SDS011;69117;47.148;18.954;2023-12-22T19:12:17;2.08;;;1.00;;
79644;SDS011;69117;47.148;18.954;2023-12-22T19:15:19;0.08;;;0.00;;
79644;SDS011;69117;47.148;18.954;2023-12-22T19:18:21;2.40;;;0.95;;
79644;SDS011;69117;47.148;18.954;2023-12-22T19:21:23;1.02;;;0.10;;
79644;SDS011;69117;47.148;18.954;2023-12-22T19:24:25;0.00;;;0.00;;
79644;SDS011;69117;47.148;18.954;2023-12-22T19:27:27;1.02;;;0.30;;
79644;SDS011;69117;47.148;18.954;2023-12-22T19:30:31;0.45;;;0.13;;
79644;SDS011;69117;47.148;18.954;2023-12-22T19:33:36;0.10;;;0.10;;
79644;SDS011;69117;47.148;18.954;2023-12-22T19:36:39;0.17;;;0.10;;
79644;SDS011;69117;47.148;18.954;2023-12-22T19:39:41;0.10;;;0.00;;
79644;SDS011;69117;47.148;18.954;2023-12-22T19:42:42;0.25;;;0.25;;
79644;SDS011;69117;47.148;18.954;2023-12-22T19:48:46;0.00;;;0.00;;
79644;SDS011;69117;47.148;18.954;2023-12-22T19:54:49;0.32;;;0.00;;
79644;SDS011;69117;47.148;18.954;2023-12-22T19:57:51;0.52;;;0.10;;
79644;SDS011;69117;47.148;18.954;2023-12-22T20:00:53;0.77;;;0.50;;
79644;SDS011;69117;47.148;18.954;2023-12-22T20:03:54;1.55;;;0.73;;
79644;SDS011;69117;47.148;18.954;2023-12-22T20:06:57;0.00;;;0.00;;
79644;SDS011;69117;47.148;18.954;2023-12-22T20:09:59;1.88;;;0.35;;
79644;SDS011;69117;47.148;18.954;2023-12-22T20:13:01;1.23;;;0.73;;
79644;SDS011;69117;47.148;18.954;2023-12-22T20:19:07;1.85;;;0.40;;
79644;SDS011;69117;47.148;18.954;2023-12-22T20:22:09;0.25;;;0.15;;
79644;SDS011;69117;47.148;18.954;2023-12-22T20:25:11;0.30;;;0.10;;